sensor_id;sensor_type;location;lat;lon;timestamp;P1;durP1;ratioP1;P2;durP2;ratioP2
71116;SDS011;58775;46.992;9.518;2023-04-16T08:13:51;1.02;;;0.40;;
71116;SDS011;58775;46.992;9.518;2023-04-16T08:17:30;0.98;;;0.40;;
71116;SDS011;58775;46.992;9.518;2023-04-16T08:51:56;2.10;;;0.73;;
71116;SDS011;58775;46.992;9.518;2023-04-16T08:54:54;1.42;;;0.50;;
71116;SDS011;58775;46.992;9.518;2023-04-16T08:57:09;1.55;;;0.50;;
71116;SDS011;58775;46.992;9.518;2023-04-16T08:59:13;1.87;;;0.57;;
71116;SDS011;58775;46.992;9.518;2023-04-16T09:01:17;1.45;;;0.45;;
71116;SDS011;58775;46.992;9.518;2023-04-16T09:03:19;1.20;;;0.40;;
71116;SDS011;58775;46.992;9.518;2023-04-16T19:05:51;7.57;;;4.30;;
71116;SDS011;58775;46.992;9.518;2023-04-16T19:07:53;3.53;;;1.42;;
71116;SDS011;58775;46.992;9.518;2023-04-16T19:09:55;5.13;;;1.13;;
71116;SDS011;58775;46.992;9.518;2023-04-16T19:11:56;3.28;;;0.90;;
71116;SDS011;58775;46.992;9.518;2023-04-16T19:13:57;2.63;;;0.90;;
71116;SDS011;58775;46.992;9.518;2023-04-16T19:16:01;5.50;;;1.50;;
71116;SDS011;58775;46.992;9.518;2023-04-16T19:18:05;3.63;;;0.80;;
71116;SDS011;58775;46.992;9.518;2023-04-16T19:20:06;3.22;;;1.00;;
71116;SDS011;58775;46.992;9.518;2023-04-16T19:22:11;3.70;;;1.10;;
71116;SDS011;58775;46.992;9.518;2023-04-16T19:24:13;3.35;;;1.08;;
71116;SDS011;58775;46.992;9.518;2023-04-16T19:26:16;10.93;;;5.35;;
71116;SDS011;58775;46.992;9.518;2023-04-16T19:28:18;12.38;;;5.03;;
71116;SDS011;58775;46.992;9.518;2023-04-16T19:30:20;9.13;;;4.50;;
71116;SDS011;58775;46.992;9.518;2023-04-16T19:32:22;11.25;;;4.10;;
71116;SDS011;58775;46.992;9.518;2023-04-16T19:34:24;8.23;;;2.83;;
71116;SDS011;58775;46.992;9.518;2023-04-16T19:36:26;7.75;;;2.13;;
71116;SDS011;58775;46.992;9.518;2023-04-16T19:38:28;8.02;;;1.67;;
71116;SDS011;58775;46.992;9.518;2023-04-16T19:40:33;7.38;;;2.50;;
71116;SDS011;58775;46.992;9.518;2023-04-16T19:42:37;5.38;;;1.98;;
71116;SDS011;58775;46.992;9.518;2023-04-16T19:44:40;5.28;;;1.30;;
71116;SDS011;58775;46.992;9.518;2023-04-16T19:46:43;4.00;;;1.27;;
71116;SDS011;58775;46.992;9.518;2023-04-16T19:48:44;4.70;;;1.30;;
71116;SDS011;58775;46.992;9.518;2023-04-16T19:50:47;3.65;;;1.00;;
71116;SDS011;58775;46.992;9.518;2023-04-16T19:52:49;5.28;;;1.58;;
71116;SDS011;58775;46.992;9.518;2023-04-16T19:54:51;4.65;;;1.10;;
71116;SDS011;58775;46.992;9.518;2023-04-16T19:56:53;3.90;;;0.93;;
71116;SDS011;58775;46.992;9.518;2023-04-16T19:58:55;4.05;;;1.30;;
71116;SDS011;58775;46.992;9.518;2023-04-16T20:00:57;4.40;;;1.33;;
71116;SDS011;58775;46.992;9.518;2023-04-16T20:02:58;2.05;;;0.80;;
71116;SDS011;58775;46.992;9.518;2023-04-16T20:05:01;5.28;;;1.75;;
71116;SDS011;58775;46.992;9.518;2023-04-16T20:07:04;5.85;;;1.90;;
71116;SDS011;58775;46.992;9.518;2023-04-16T20:09:06;4.35;;;1.33;;
71116;SDS011;58775;46.992;9.518;2023-04-16T20:11:08;6.22;;;1.52;;
71116;SDS011;58775;46.992;9.518;2023-04-16T20:13:11;4.13;;;1.50;;
71116;SDS011;58775;46.992;9.518;2023-04-16T20:15:14;4.05;;;1.48;;
71116;SDS011;58775;46.992;9.518;2023-04-16T20:17:17;3.10;;;1.15;;
71116;SDS011;58775;46.992;9.518;2023-04-16T20:19:19;3.60;;;1.33;;
71116;SDS011;58775;46.992;9.518;2023-04-16T20:21:22;8.95;;;3.70;;
71116;SDS011;58775;46.992;9.518;2023-04-16T20:23:25;12.48;;;5.38;;
71116;SDS011;58775;46.992;9.518;2023-04-16T20:25:26;6.80;;;2.33;;
71116;SDS011;58775;46.992;9.518;2023-04-16T20:27:32;6.82;;;2.08;;
71116;SDS011;58775;46.992;9.518;2023-04-16T20:29:33;5.93;;;2.00;;
71116;SDS011;58775;46.992;9.518;2023-04-16T20:31:35;5.43;;;1.83;;
71116;SDS011;58775;46.992;9.518;2023-04-16T20:33:36;6.43;;;2.28;;
71116;SDS011;58775;46.992;9.518;2023-04-16T20:35:41;17.35;;;6.78;;
71116;SDS011;58775;46.992;9.518;2023-04-16T20:37:42;19.30;;;6.35;;
71116;SDS011;58775;46.992;9.518;2023-04-16T20:39:44;13.65;;;4.95;;
71116;SDS011;58775;46.992;9.518;2023-04-16T20:41:46;7.57;;;2.72;;
71116;SDS011;58775;46.992;9.518;2023-04-16T20:43:56;9.93;;;3.15;;
71116;SDS011;58775;46.992;9.518;2023-04-16T20:45:57;7.53;;;2.97;;
71116;SDS011;58775;46.992;9.518;2023-04-16T20:47:58;7.50;;;2.90;;
71116;SDS011;58775;46.992;9.518;2023-04-16T20:49:59;5.75;;;2.33;;
71116;SDS011;58775;46.992;9.518;2023-04-16T20:52:02;4.53;;;1.73;;
71116;SDS011;58775;46.992;9.518;2023-04-16T20:54:04;4.40;;;1.90;;
71116;SDS011;58775;46.992;9.518;2023-04-16T20:56:05;4.57;;;2.13;;
71116;SDS011;58775;46.992;9.518;2023-04-16T20:58:08;5.15;;;1.50;;
71116;SDS011;58775;46.992;9.518;2023-04-16T21:00:09;6.15;;;2.60;;
71116;SDS011;58775;46.992;9.518;2023-04-16T21:02:12;7.53;;;2.83;;
71116;SDS011;58775;46.992;9.518;2023-04-16T21:04:13;6.35;;;2.47;;
71116;SDS011;58775;46.992;9.518;2023-04-16T21:06:15;6.15;;;2.33;;
71116;SDS011;58775;46.992;9.518;2023-04-16T21:08:17;4.72;;;1.70;;
71116;SDS011;58775;46.992;9.518;2023-04-16T21:10:20;6.22;;;1.95;;
71116;SDS011;58775;46.992;9.518;2023-04-16T21:12:21;5.00;;;1.80;;
71116;SDS011;58775;46.992;9.518;2023-04-16T21:14:22;5.30;;;1.80;;
71116;SDS011;58775;46.992;9.518;2023-04-16T21:16:24;5.25;;;1.80;;
71116;SDS011;58775;46.992;9.518;2023-04-16T21:18:25;4.55;;;1.77;;
71116;SDS011;58775;46.992;9.518;2023-04-16T21:20:26;6.15;;;1.85;;
71116;SDS011;58775;46.992;9.518;2023-04-16T21:22:28;3.67;;;1.45;;
71116;SDS011;58775;46.992;9.518;2023-04-16T21:24:30;4.13;;;1.77;;
71116;SDS011;58775;46.992;9.518;2023-04-16T21:26:32;5.43;;;1.60;;
71116;SDS011;58775;46.992;9.518;2023-04-16T21:28:33;4.50;;;1.70;;
71116;SDS011;58775;46.992;9.518;2023-04-16T21:30:34;5.13;;;1.90;;
71116;SDS011;58775;46.992;9.518;2023-04-16T21:32:36;4.65;;;1.92;;
71116;SDS011;58775;46.992;9.518;2023-04-16T21:34:37;4.35;;;1.70;;
71116;SDS011;58775;46.992;9.518;2023-04-16T21:36:38;4.97;;;1.77;;
71116;SDS011;58775;46.992;9.518;2023-04-16T21:38:40;4.97;;;2.08;;
71116;SDS011;58775;46.992;9.518;2023-04-16T21:40:41;4.50;;;1.60;;
71116;SDS011;58775;46.992;9.518;2023-04-16T21:42:43;4.30;;;1.60;;
71116;SDS011;58775;46.992;9.518;2023-04-16T21:44:44;4.07;;;1.60;;
71116;SDS011;58775;46.992;9.518;2023-04-16T21:46:45;5.35;;;1.80;;
71116;SDS011;58775;46.992;9.518;2023-04-16T21:48:47;4.00;;;1.80;;
71116;SDS011;58775;46.992;9.518;2023-04-16T21:52:57;4.10;;;1.70;;
71116;SDS011;58775;46.992;9.518;2023-04-16T21:54:59;5.03;;;1.90;;
71116;SDS011;58775;46.992;9.518;2023-04-16T21:57:00;4.20;;;1.70;;
71116;SDS011;58775;46.992;9.518;2023-04-16T21:59:02;4.50;;;1.80;;
71116;SDS011;58775;46.992;9.518;2023-04-16T22:01:03;4.65;;;1.75;;
71116;SDS011;58775;46.992;9.518;2023-04-16T22:03:05;5.55;;;1.80;;
71116;SDS011;58775;46.992;9.518;2023-04-16T22:05:08;4.15;;;1.50;;
71116;SDS011;58775;46.992;9.518;2023-04-16T22:07:11;4.85;;;1.98;;
71116;SDS011;58775;46.992;9.518;2023-04-16T22:09:12;4.93;;;1.77;;
71116;SDS011;58775;46.992;9.518;2023-04-16T22:11:13;5.03;;;1.88;;
71116;SDS011;58775;46.992;9.518;2023-04-16T22:13:14;4.35;;;1.85;;
71116;SDS011;58775;46.992;9.518;2023-04-16T22:15:17;4.32;;;1.92;;
71116;SDS011;58775;46.992;9.518;2023-04-16T22:17:18;5.57;;;1.75;;
71116;SDS011;58775;46.992;9.518;2023-04-16T22:19:20;5.38;;;1.90;;
71116;SDS011;58775;46.992;9.518;2023-04-16T22:21:21;4.53;;;1.73;;
71116;SDS011;58775;46.992;9.518;2023-04-16T22:23:23;4.70;;;1.80;;
71116;SDS011;58775;46.992;9.518;2023-04-16T22:25:25;3.90;;;1.60;;
71116;SDS011;58775;46.992;9.518;2023-04-16T22:27:27;4.53;;;1.75;;
71116;SDS011;58775;46.992;9.518;2023-04-16T22:29:28;5.03;;;1.92;;
71116;SDS011;58775;46.992;9.518;2023-04-16T22:31:29;4.78;;;1.88;;
71116;SDS011;58775;46.992;9.518;2023-04-16T22:33:30;5.88;;;2.00;;
71116;SDS011;58775;46.992;9.518;2023-04-16T22:35:32;6.07;;;2.40;;
71116;SDS011;58775;46.992;9.518;2023-04-16T22:37:33;4.10;;;1.80;;
71116;SDS011;58775;46.992;9.518;2023-04-16T22:39:34;4.90;;;1.88;;
71116;SDS011;58775;46.992;9.518;2023-04-16T22:41:36;4.88;;;2.20;;
71116;SDS011;58775;46.992;9.518;2023-04-16T22:43:37;4.55;;;2.00;;
71116;SDS011;58775;46.992;9.518;2023-04-16T22:45:39;5.80;;;2.05;;
71116;SDS011;58775;46.992;9.518;2023-04-16T22:47:40;5.40;;;2.10;;
71116;SDS011;58775;46.992;9.518;2023-04-16T22:49:41;6.00;;;2.45;;
71116;SDS011;58775;46.992;9.518;2023-04-16T22:51:43;5.35;;;2.00;;
71116;SDS011;58775;46.992;9.518;2023-04-16T22:53:44;4.20;;;1.55;;
71116;SDS011;58775;46.992;9.518;2023-04-16T22:55:45;4.75;;;1.90;;
71116;SDS011;58775;46.992;9.518;2023-04-16T22:57:47;4.32;;;1.60;;
71116;SDS011;58775;46.992;9.518;2023-04-16T22:59:48;4.97;;;1.85;;
71116;SDS011;58775;46.992;9.518;2023-04-16T23:01:49;3.85;;;1.50;;
71116;SDS011;58775;46.992;9.518;2023-04-16T23:03:51;4.35;;;1.80;;
71116;SDS011;58775;46.992;9.518;2023-04-16T23:05:52;4.15;;;1.67;;
71116;SDS011;58775;46.992;9.518;2023-04-16T23:07:53;4.53;;;1.65;;
71116;SDS011;58775;46.992;9.518;2023-04-16T23:09:55;4.38;;;1.88;;
71116;SDS011;58775;46.992;9.518;2023-04-16T23:11:56;5.60;;;2.00;;
71116;SDS011;58775;46.992;9.518;2023-04-16T23:13:57;5.40;;;2.28;;
71116;SDS011;58775;46.992;9.518;2023-04-16T23:15:58;5.43;;;1.85;;
71116;SDS011;58775;46.992;9.518;2023-04-16T23:17:59;6.32;;;2.15;;
71116;SDS011;58775;46.992;9.518;2023-04-16T23:20:01;5.28;;;2.30;;
71116;SDS011;58775;46.992;9.518;2023-04-16T23:22:04;5.65;;;2.35;;
71116;SDS011;58775;46.992;9.518;2023-04-16T23:24:06;6.22;;;2.30;;
71116;SDS011;58775;46.992;9.518;2023-04-16T23:26:07;5.55;;;1.98;;
71116;SDS011;58775;46.992;9.518;2023-04-16T23:28:08;5.60;;;2.60;;
71116;SDS011;58775;46.992;9.518;2023-04-16T23:30:09;5.50;;;1.90;;
71116;SDS011;58775;46.992;9.518;2023-04-16T23:32:10;4.72;;;2.00;;
71116;SDS011;58775;46.992;9.518;2023-04-16T23:34:11;5.15;;;1.83;;
71116;SDS011;58775;46.992;9.518;2023-04-16T23:36:13;5.13;;;2.20;;
71116;SDS011;58775;46.992;9.518;2023-04-16T23:38:14;4.55;;;1.90;;
71116;SDS011;58775;46.992;9.518;2023-04-16T23:40:15;6.50;;;2.60;;
71116;SDS011;58775;46.992;9.518;2023-04-16T23:42:17;5.78;;;2.30;;
71116;SDS011;58775;46.992;9.518;2023-04-16T23:44:18;5.25;;;2.35;;
71116;SDS011;58775;46.992;9.518;2023-04-16T23:46:19;4.80;;;2.00;;
71116;SDS011;58775;46.992;9.518;2023-04-16T23:48:20;5.47;;;2.30;;
71116;SDS011;58775;46.992;9.518;2023-04-16T23:50:22;6.28;;;2.72;;
71116;SDS011;58775;46.992;9.518;2023-04-16T23:52:23;5.63;;;2.60;;
71116;SDS011;58775;46.992;9.518;2023-04-16T23:54:24;5.90;;;2.42;;
71116;SDS011;58775;46.992;9.518;2023-04-16T23:56:25;5.85;;;2.38;;
71116;SDS011;58775;46.992;9.518;2023-04-16T23:58:27;6.15;;;2.50;;
